sensor_id;sensor_type;location;lat;lon;timestamp;P1;durP1;ratioP1;P2;durP2;ratioP2
36383;SDS011;22418;51.210;6.976;2023-07-20T00:01:36;11.52;;;2.70;;
36383;SDS011;22418;51.210;6.976;2023-07-20T00:04:08;10.70;;;2.45;;
36383;SDS011;22418;51.210;6.976;2023-07-20T00:06:38;11.27;;;2.80;;
36383;SDS011;22418;51.210;6.976;2023-07-20T00:09:10;6.55;;;2.33;;
36383;SDS011;22418;51.210;6.976;2023-07-20T00:11:47;5.83;;;2.17;;
36383;SDS011;22418;51.210;6.976;2023-07-20T00:14:21;5.22;;;2.40;;
36383;SDS011;22418;51.210;6.976;2023-07-20T00:16:52;5.90;;;2.20;;
36383;SDS011;22418;51.210;6.976;2023-07-20T00:19:26;7.90;;;2.35;;
36383;SDS011;22418;51.210;6.976;2023-07-20T00:21:57;5.28;;;2.40;;
36383;SDS011;22418;51.210;6.976;2023-07-20T00:24:28;7.93;;;2.77;;
36383;SDS011;22418;51.210;6.976;2023-07-20T00:26:58;5.30;;;2.40;;
36383;SDS011;22418;51.210;6.976;2023-07-20T00:29:30;7.63;;;2.70;;
36383;SDS011;22418;51.210;6.976;2023-07-20T00:32:01;4.20;;;2.13;;
36383;SDS011;22418;51.210;6.976;2023-07-20T00:34:34;6.47;;;2.22;;
36383;SDS011;22418;51.210;6.976;2023-07-20T00:37:05;6.30;;;2.37;;
36383;SDS011;22418;51.210;6.976;2023-07-20T00:39:36;7.22;;;2.22;;
36383;SDS011;22418;51.210;6.976;2023-07-20T00:42:06;7.33;;;2.50;;
36383;SDS011;22418;51.210;6.976;2023-07-20T00:44:37;5.43;;;2.27;;
36383;SDS011;22418;51.210;6.976;2023-07-20T00:47:07;4.23;;;2.20;;
36383;SDS011;22418;51.210;6.976;2023-07-20T00:49:38;6.70;;;2.45;;
36383;SDS011;22418;51.210;6.976;2023-07-20T00:52:10;6.05;;;2.40;;
36383;SDS011;22418;51.210;6.976;2023-07-20T00:54:43;5.68;;;2.10;;
36383;SDS011;22418;51.210;6.976;2023-07-20T00:57:14;10.15;;;2.53;;
36383;SDS011;22418;51.210;6.976;2023-07-20T01:02:16;6.07;;;2.37;;
36383;SDS011;22418;51.210;6.976;2023-07-20T01:04:46;7.30;;;2.50;;
36383;SDS011;22418;51.210;6.976;2023-07-20T01:10:14;6.50;;;2.42;;
36383;SDS011;22418;51.210;6.976;2023-07-20T01:13:17;6.93;;;2.20;;
36383;SDS011;22418;51.210;6.976;2023-07-20T01:15:49;7.03;;;2.85;;
36383;SDS011;22418;51.210;6.976;2023-07-20T01:18:21;7.10;;;3.03;;
36383;SDS011;22418;51.210;6.976;2023-07-20T01:20:52;9.80;;;3.37;;
36383;SDS011;22418;51.210;6.976;2023-07-20T01:32:24;7.40;;;3.03;;
36383;SDS011;22418;51.210;6.976;2023-07-20T01:34:55;5.80;;;3.03;;
36383;SDS011;22418;51.210;6.976;2023-07-20T01:37:28;7.03;;;2.80;;
36383;SDS011;22418;51.210;6.976;2023-07-20T01:40:02;6.75;;;2.83;;
36383;SDS011;22418;51.210;6.976;2023-07-20T01:42:33;7.15;;;2.78;;
36383;SDS011;22418;51.210;6.976;2023-07-20T01:45:04;8.43;;;2.87;;
36383;SDS011;22418;51.210;6.976;2023-07-20T01:47:35;4.32;;;2.60;;
36383;SDS011;22418;51.210;6.976;2023-07-20T01:50:06;6.10;;;2.67;;
36383;SDS011;22418;51.210;6.976;2023-07-20T01:52:37;5.50;;;2.92;;
36383;SDS011;22418;51.210;6.976;2023-07-20T01:55:08;6.60;;;2.97;;
36383;SDS011;22418;51.210;6.976;2023-07-20T01:57:39;10.40;;;3.17;;
36383;SDS011;22418;51.210;6.976;2023-07-20T02:00:10;5.65;;;3.00;;
36383;SDS011;22418;51.210;6.976;2023-07-20T02:02:42;10.40;;;3.55;;
36383;SDS011;22418;51.210;6.976;2023-07-20T02:05:13;8.40;;;3.60;;
36383;SDS011;22418;51.210;6.976;2023-07-20T02:07:43;7.10;;;3.07;;
36383;SDS011;22418;51.210;6.976;2023-07-20T02:10:14;6.10;;;3.33;;
36383;SDS011;22418;51.210;6.976;2023-07-20T02:12:46;6.97;;;3.50;;
36383;SDS011;22418;51.210;6.976;2023-07-20T02:15:17;8.13;;;3.08;;
36383;SDS011;22418;51.210;6.976;2023-07-20T02:17:48;12.27;;;3.80;;
36383;SDS011;22418;51.210;6.976;2023-07-20T02:20:19;9.70;;;4.00;;
36383;SDS011;22418;51.210;6.976;2023-07-20T02:22:50;6.78;;;3.55;;
36383;SDS011;22418;51.210;6.976;2023-07-20T02:25:21;7.60;;;3.30;;
36383;SDS011;22418;51.210;6.976;2023-07-20T02:27:52;7.20;;;3.40;;
36383;SDS011;22418;51.210;6.976;2023-07-20T02:30:22;13.82;;;3.97;;
36383;SDS011;22418;51.210;6.976;2023-07-20T02:32:53;7.63;;;4.20;;
36383;SDS011;22418;51.210;6.976;2023-07-20T02:35:24;8.93;;;3.73;;
36383;SDS011;22418;51.210;6.976;2023-07-20T02:37:54;12.47;;;3.80;;
36383;SDS011;22418;51.210;6.976;2023-07-20T02:40:25;8.47;;;3.57;;
36383;SDS011;22418;51.210;6.976;2023-07-20T02:42:55;8.17;;;3.40;;
36383;SDS011;22418;51.210;6.976;2023-07-20T02:45:26;5.70;;;3.47;;
36383;SDS011;22418;51.210;6.976;2023-07-20T02:47:56;7.73;;;2.93;;
36383;SDS011;22418;51.210;6.976;2023-07-20T02:50:27;10.03;;;3.70;;
36383;SDS011;22418;51.210;6.976;2023-07-20T02:52:57;8.00;;;3.93;;
36383;SDS011;22418;51.210;6.976;2023-07-20T02:55:28;8.73;;;3.37;;
36383;SDS011;22418;51.210;6.976;2023-07-20T02:57:58;8.10;;;4.07;;
36383;SDS011;22418;51.210;6.976;2023-07-20T03:00:29;6.87;;;3.83;;
36383;SDS011;22418;51.210;6.976;2023-07-20T03:02:59;9.73;;;3.97;;
36383;SDS011;22418;51.210;6.976;2023-07-20T03:05:30;10.20;;;3.90;;
36383;SDS011;22418;51.210;6.976;2023-07-20T03:08:01;6.33;;;3.33;;
36383;SDS011;22418;51.210;6.976;2023-07-20T03:10:33;8.35;;;3.80;;
36383;SDS011;22418;51.210;6.976;2023-07-20T03:13:08;12.65;;;4.00;;
36383;SDS011;22418;51.210;6.976;2023-07-20T03:15:38;13.93;;;3.77;;
36383;SDS011;22418;51.210;6.976;2023-07-20T03:18:09;6.07;;;3.70;;
36383;SDS011;22418;51.210;6.976;2023-07-20T03:20:40;7.30;;;3.35;;
36383;SDS011;22418;51.210;6.976;2023-07-20T03:23:10;7.07;;;3.70;;
36383;SDS011;22418;51.210;6.976;2023-07-20T03:25:41;10.83;;;4.13;;
36383;SDS011;22418;51.210;6.976;2023-07-20T03:28:12;7.37;;;3.57;;
36383;SDS011;22418;51.210;6.976;2023-07-20T03:30:42;9.53;;;3.73;;
36383;SDS011;22418;51.210;6.976;2023-07-20T03:33:13;9.80;;;4.07;;
36383;SDS011;22418;51.210;6.976;2023-07-20T03:35:43;8.83;;;3.67;;
36383;SDS011;22418;51.210;6.976;2023-07-20T03:38:14;7.63;;;3.50;;
36383;SDS011;22418;51.210;6.976;2023-07-20T03:43:26;9.68;;;3.58;;
36383;SDS011;22418;51.210;6.976;2023-07-20T03:45:57;7.25;;;3.50;;
36383;SDS011;22418;51.210;6.976;2023-07-20T03:48:28;10.67;;;3.37;;
36383;SDS011;22418;51.210;6.976;2023-07-20T03:50:58;10.53;;;3.60;;
36383;SDS011;22418;51.210;6.976;2023-07-20T03:53:30;9.80;;;4.05;;
36383;SDS011;22418;51.210;6.976;2023-07-20T03:58:32;9.23;;;3.47;;
36383;SDS011;22418;51.210;6.976;2023-07-20T04:01:03;11.53;;;4.50;;
36383;SDS011;22418;51.210;6.976;2023-07-20T04:03:33;9.17;;;4.07;;
36383;SDS011;22418;51.210;6.976;2023-07-20T04:06:04;8.37;;;4.13;;
36383;SDS011;22418;51.210;6.976;2023-07-20T04:08:35;8.47;;;4.43;;
36383;SDS011;22418;51.210;6.976;2023-07-20T04:11:07;11.23;;;4.45;;
36383;SDS011;22418;51.210;6.976;2023-07-20T04:13:37;9.97;;;4.40;;
36383;SDS011;22418;51.210;6.976;2023-07-20T04:16:08;9.77;;;3.90;;
36383;SDS011;22418;51.210;6.976;2023-07-20T04:18:39;10.20;;;4.70;;
36383;SDS011;22418;51.210;6.976;2023-07-20T04:21:09;9.50;;;4.47;;
36383;SDS011;22418;51.210;6.976;2023-07-20T04:23:41;12.98;;;4.32;;
36383;SDS011;22418;51.210;6.976;2023-07-20T04:26:11;8.52;;;4.32;;
36383;SDS011;22418;51.210;6.976;2023-07-20T04:28:42;11.23;;;4.28;;
36383;SDS011;22418;51.210;6.976;2023-07-20T04:31:14;10.23;;;4.47;;
36383;SDS011;22418;51.210;6.976;2023-07-20T04:33:45;16.45;;;5.10;;
36383;SDS011;22418;51.210;6.976;2023-07-20T04:36:15;10.70;;;4.73;;
36383;SDS011;22418;51.210;6.976;2023-07-20T04:38:49;11.82;;;4.75;;
36383;SDS011;22418;51.210;6.976;2023-07-20T04:41:19;12.20;;;4.93;;
36383;SDS011;22418;51.210;6.976;2023-07-20T04:43:50;9.23;;;4.72;;
36383;SDS011;22418;51.210;6.976;2023-07-20T04:46:21;10.20;;;5.00;;
36383;SDS011;22418;51.210;6.976;2023-07-20T04:48:51;11.73;;;4.70;;
36383;SDS011;22418;51.210;6.976;2023-07-20T04:51:22;13.37;;;5.27;;
36383;SDS011;22418;51.210;6.976;2023-07-20T04:53:53;15.30;;;5.13;;
36383;SDS011;22418;51.210;6.976;2023-07-20T04:56:23;10.33;;;5.13;;
36383;SDS011;22418;51.210;6.976;2023-07-20T04:58:54;10.85;;;5.05;;
36383;SDS011;22418;51.210;6.976;2023-07-20T05:01:25;13.10;;;5.33;;
36383;SDS011;22418;51.210;6.976;2023-07-20T05:06:27;13.33;;;5.30;;
36383;SDS011;22418;51.210;6.976;2023-07-20T05:08:57;16.30;;;6.63;;
36383;SDS011;22418;51.210;6.976;2023-07-20T05:11:28;11.70;;;6.47;;
36383;SDS011;22418;51.210;6.976;2023-07-20T05:13:59;13.33;;;7.20;;
36383;SDS011;22418;51.210;6.976;2023-07-20T05:16:30;13.38;;;6.93;;
36383;SDS011;22418;51.210;6.976;2023-07-20T05:19:00;16.13;;;7.13;;
36383;SDS011;22418;51.210;6.976;2023-07-20T05:21:31;16.73;;;8.03;;
36383;SDS011;22418;51.210;6.976;2023-07-20T05:24:01;12.00;;;7.03;;
36383;SDS011;22418;51.210;6.976;2023-07-20T05:26:32;14.50;;;7.70;;
36383;SDS011;22418;51.210;6.976;2023-07-20T05:29:03;15.85;;;9.70;;
36383;SDS011;22418;51.210;6.976;2023-07-20T05:31:34;17.50;;;10.07;;
36383;SDS011;22418;51.210;6.976;2023-07-20T05:34:04;23.03;;;12.50;;
36383;SDS011;22418;51.210;6.976;2023-07-20T05:36:35;19.47;;;11.27;;
36383;SDS011;22418;51.210;6.976;2023-07-20T05:39:06;19.77;;;9.88;;
36383;SDS011;22418;51.210;6.976;2023-07-20T05:41:37;24.50;;;10.80;;
36383;SDS011;22418;51.210;6.976;2023-07-20T05:44:08;20.43;;;11.07;;
36383;SDS011;22418;51.210;6.976;2023-07-20T05:46:38;17.67;;;10.93;;
36383;SDS011;22418;51.210;6.976;2023-07-20T05:49:09;18.20;;;10.43;;
36383;SDS011;22418;51.210;6.976;2023-07-20T05:51:40;19.40;;;10.95;;
36383;SDS011;22418;51.210;6.976;2023-07-20T05:54:10;15.50;;;9.60;;
36383;SDS011;22418;51.210;6.976;2023-07-20T05:56:41;21.87;;;10.80;;
36383;SDS011;22418;51.210;6.976;2023-07-20T05:59:11;19.57;;;10.83;;
36383;SDS011;22418;51.210;6.976;2023-07-20T06:01:43;14.83;;;9.77;;
36383;SDS011;22418;51.210;6.976;2023-07-20T06:04:14;17.70;;;11.50;;
36383;SDS011;22418;51.210;6.976;2023-07-20T06:09:16;19.13;;;11.90;;
36383;SDS011;22418;51.210;6.976;2023-07-20T06:11:49;22.02;;;13.25;;
36383;SDS011;22418;51.210;6.976;2023-07-20T06:14:20;19.75;;;13.20;;
36383;SDS011;22418;51.210;6.976;2023-07-20T06:16:50;22.53;;;15.53;;
36383;SDS011;22418;51.210;6.976;2023-07-20T06:19:21;23.13;;;14.87;;
36383;SDS011;22418;51.210;6.976;2023-07-20T06:21:52;25.13;;;14.48;;
36383;SDS011;22418;51.210;6.976;2023-07-20T06:24:23;24.13;;;15.37;;
36383;SDS011;22418;51.210;6.976;2023-07-20T06:26:53;20.27;;;13.17;;
36383;SDS011;22418;51.210;6.976;2023-07-20T06:29:24;23.23;;;16.50;;
36383;SDS011;22418;51.210;6.976;2023-07-20T06:31:54;27.77;;;16.27;;
36383;SDS011;22418;51.210;6.976;2023-07-20T06:34:25;16.87;;;12.53;;
36383;SDS011;22418;51.210;6.976;2023-07-20T06:36:55;25.60;;;15.87;;
36383;SDS011;22418;51.210;6.976;2023-07-20T06:39:26;23.38;;;15.75;;
36383;SDS011;22418;51.210;6.976;2023-07-20T06:41:57;23.80;;;16.80;;
36383;SDS011;22418;51.210;6.976;2023-07-20T06:44:27;23.63;;;17.20;;
36383;SDS011;22418;51.210;6.976;2023-07-20T06:46:58;27.03;;;18.60;;
36383;SDS011;22418;51.210;6.976;2023-07-20T06:49:28;25.63;;;16.40;;
36383;SDS011;22418;51.210;6.976;2023-07-20T06:51:59;25.47;;;18.63;;
36383;SDS011;22418;51.210;6.976;2023-07-20T06:54:30;27.33;;;16.73;;
36383;SDS011;22418;51.210;6.976;2023-07-20T06:57:00;18.60;;;14.90;;
36383;SDS011;22418;51.210;6.976;2023-07-20T06:59:31;17.13;;;11.93;;
36383;SDS011;22418;51.210;6.976;2023-07-20T07:02:01;13.35;;;8.55;;
36383;SDS011;22418;51.210;6.976;2023-07-20T07:07:02;10.37;;;8.70;;
36383;SDS011;22418;51.210;6.976;2023-07-20T07:09:33;7.32;;;5.57;;
36383;SDS011;22418;51.210;6.976;2023-07-20T07:12:04;5.88;;;4.60;;
36383;SDS011;22418;51.210;6.976;2023-07-20T07:14:35;5.53;;;4.47;;
36383;SDS011;22418;51.210;6.976;2023-07-20T07:19:37;5.63;;;5.00;;
36383;SDS011;22418;51.210;6.976;2023-07-20T07:22:08;9.82;;;5.93;;
36383;SDS011;22418;51.210;6.976;2023-07-20T07:27:11;8.45;;;6.82;;
36383;SDS011;22418;51.210;6.976;2023-07-20T07:29:42;13.48;;;8.35;;
36383;SDS011;22418;51.210;6.976;2023-07-20T07:32:16;10.38;;;7.40;;
36383;SDS011;22418;51.210;6.976;2023-07-20T07:34:46;10.35;;;7.00;;
36383;SDS011;22418;51.210;6.976;2023-07-20T07:37:17;13.23;;;9.90;;
36383;SDS011;22418;51.210;6.976;2023-07-20T07:39:49;15.27;;;12.25;;
36383;SDS011;22418;51.210;6.976;2023-07-20T07:42:20;20.42;;;12.07;;
36383;SDS011;22418;51.210;6.976;2023-07-20T07:44:51;14.43;;;10.93;;
36383;SDS011;22418;51.210;6.976;2023-07-20T07:47:21;15.97;;;10.97;;
36383;SDS011;22418;51.210;6.976;2023-07-20T07:49:52;8.73;;;7.83;;
36383;SDS011;22418;51.210;6.976;2023-07-20T07:52:22;10.87;;;8.40;;
36383;SDS011;22418;51.210;6.976;2023-07-20T07:54:53;9.77;;;8.63;;
36383;SDS011;22418;51.210;6.976;2023-07-20T07:57:23;9.13;;;7.83;;
36383;SDS011;22418;51.210;6.976;2023-07-20T07:59:54;10.77;;;7.77;;
36383;SDS011;22418;51.210;6.976;2023-07-20T08:02:24;8.93;;;7.33;;
36383;SDS011;22418;51.210;6.976;2023-07-20T08:04:55;10.35;;;7.60;;
36383;SDS011;22418;51.210;6.976;2023-07-20T08:07:25;7.90;;;7.07;;
36383;SDS011;22418;51.210;6.976;2023-07-20T08:09:56;13.87;;;6.73;;
36383;SDS011;22418;51.210;6.976;2023-07-20T08:12:27;10.18;;;6.38;;
36383;SDS011;22418;51.210;6.976;2023-07-20T08:14:57;7.03;;;5.47;;
36383;SDS011;22418;51.210;6.976;2023-07-20T08:17:28;5.90;;;4.80;;
36383;SDS011;22418;51.210;6.976;2023-07-20T08:19:58;5.93;;;4.18;;
36383;SDS011;22418;51.210;6.976;2023-07-20T08:22:30;4.75;;;4.15;;
36383;SDS011;22418;51.210;6.976;2023-07-20T08:25:00;5.20;;;3.40;;
36383;SDS011;22418;51.210;6.976;2023-07-20T08:27:31;5.83;;;4.03;;
36383;SDS011;22418;51.210;6.976;2023-07-20T08:30:02;7.73;;;4.30;;
36383;SDS011;22418;51.210;6.976;2023-07-20T08:32:34;4.90;;;3.70;;
36383;SDS011;22418;51.210;6.976;2023-07-20T08:35:05;11.40;;;3.57;;
36383;SDS011;22418;51.210;6.976;2023-07-20T08:37:36;4.10;;;3.45;;
36383;SDS011;22418;51.210;6.976;2023-07-20T08:40:06;5.28;;;2.90;;
36383;SDS011;22418;51.210;6.976;2023-07-20T08:42:39;4.70;;;3.08;;
36383;SDS011;22418;51.210;6.976;2023-07-20T08:45:09;3.83;;;2.70;;
36383;SDS011;22418;51.210;6.976;2023-07-20T08:47:42;5.50;;;2.90;;
36383;SDS011;22418;51.210;6.976;2023-07-20T08:50:15;4.70;;;2.50;;
36383;SDS011;22418;51.210;6.976;2023-07-20T08:55:18;3.17;;;2.00;;
36383;SDS011;22418;51.210;6.976;2023-07-20T08:57:54;5.07;;;2.33;;
36383;SDS011;22418;51.210;6.976;2023-07-20T09:00:28;2.22;;;1.90;;
36383;SDS011;22418;51.210;6.976;2023-07-20T09:02:59;3.17;;;1.95;;
36383;SDS011;22418;51.210;6.976;2023-07-20T09:05:32;6.10;;;2.80;;
36383;SDS011;22418;51.210;6.976;2023-07-20T09:08:05;5.00;;;2.70;;
36383;SDS011;22418;51.210;6.976;2023-07-20T09:10:35;7.68;;;2.85;;
36383;SDS011;22418;51.210;6.976;2023-07-20T09:13:06;5.53;;;2.77;;
36383;SDS011;22418;51.210;6.976;2023-07-20T09:15:37;2.97;;;2.13;;
36383;SDS011;22418;51.210;6.976;2023-07-20T09:18:07;4.30;;;2.42;;
36383;SDS011;22418;51.210;6.976;2023-07-20T09:20:38;6.53;;;2.30;;
36383;SDS011;22418;51.210;6.976;2023-07-20T09:23:08;4.95;;;2.33;;
36383;SDS011;22418;51.210;6.976;2023-07-20T09:25:39;2.88;;;2.47;;
36383;SDS011;22418;51.210;6.976;2023-07-20T09:28:10;5.45;;;2.50;;
36383;SDS011;22418;51.210;6.976;2023-07-20T09:30:41;6.00;;;2.63;;
36383;SDS011;22418;51.210;6.976;2023-07-20T09:33:18;5.60;;;2.20;;
36383;SDS011;22418;51.210;6.976;2023-07-20T09:35:51;3.83;;;2.60;;
36383;SDS011;22418;51.210;6.976;2023-07-20T09:38:22;3.85;;;2.53;;
36383;SDS011;22418;51.210;6.976;2023-07-20T09:40:53;5.93;;;3.00;;
36383;SDS011;22418;51.210;6.976;2023-07-20T09:43:26;4.90;;;3.33;;
36383;SDS011;22418;51.210;6.976;2023-07-20T09:45:59;7.20;;;3.67;;
36383;SDS011;22418;51.210;6.976;2023-07-20T09:48:30;7.78;;;3.88;;
36383;SDS011;22418;51.210;6.976;2023-07-20T09:51:01;7.13;;;4.23;;
36383;SDS011;22418;51.210;6.976;2023-07-20T09:53:32;7.38;;;4.18;;
36383;SDS011;22418;51.210;6.976;2023-07-20T09:56:03;9.95;;;4.30;;
36383;SDS011;22418;51.210;6.976;2023-07-20T09:58:34;8.07;;;3.88;;
36383;SDS011;22418;51.210;6.976;2023-07-20T10:03:37;5.95;;;3.70;;
36383;SDS011;22418;51.210;6.976;2023-07-20T10:06:08;9.00;;;3.67;;
36383;SDS011;22418;51.210;6.976;2023-07-20T10:08:42;5.22;;;3.47;;
36383;SDS011;22418;51.210;6.976;2023-07-20T10:11:17;10.73;;;3.33;;
36383;SDS011;22418;51.210;6.976;2023-07-20T10:13:50;5.68;;;2.75;;
36383;SDS011;22418;51.210;6.976;2023-07-20T10:16:27;6.22;;;3.13;;
36383;SDS011;22418;51.210;6.976;2023-07-20T10:21:34;4.82;;;3.00;;
36383;SDS011;22418;51.210;6.976;2023-07-20T10:24:10;5.03;;;2.90;;
36383;SDS011;22418;51.210;6.976;2023-07-20T10:26:42;7.78;;;2.63;;
36383;SDS011;22418;51.210;6.976;2023-07-20T10:29:12;5.13;;;2.47;;
36383;SDS011;22418;51.210;6.976;2023-07-20T10:31:45;4.88;;;2.50;;
36383;SDS011;22418;51.210;6.976;2023-07-20T10:34:15;2.95;;;1.85;;
36383;SDS011;22418;51.210;6.976;2023-07-20T10:36:46;4.63;;;2.20;;
36383;SDS011;22418;51.210;6.976;2023-07-20T10:39:27;4.15;;;1.92;;
36383;SDS011;22418;51.210;6.976;2023-07-20T10:42:06;2.67;;;1.75;;
36383;SDS011;22418;51.210;6.976;2023-07-20T10:44:38;3.40;;;1.77;;
36383;SDS011;22418;51.210;6.976;2023-07-20T10:47:10;4.65;;;1.70;;
36383;SDS011;22418;51.210;6.976;2023-07-20T10:49:58;5.20;;;1.80;;
36383;SDS011;22418;51.210;6.976;2023-07-20T10:52:42;3.97;;;2.13;;
36383;SDS011;22418;51.210;6.976;2023-07-20T10:55:16;3.30;;;2.03;;
36383;SDS011;22418;51.210;6.976;2023-07-20T10:58:05;3.35;;;1.92;;
36383;SDS011;22418;51.210;6.976;2023-07-20T11:03:48;2.47;;;1.38;;
36383;SDS011;22418;51.210;6.976;2023-07-20T11:09:06;5.22;;;1.52;;
36383;SDS011;22418;51.210;6.976;2023-07-20T11:11:41;4.43;;;1.27;;
36383;SDS011;22418;51.210;6.976;2023-07-20T11:14:23;1.10;;;0.80;;
36383;SDS011;22418;51.210;6.976;2023-07-20T11:16:55;1.58;;;0.80;;
36383;SDS011;22418;51.210;6.976;2023-07-20T11:19:26;1.17;;;0.70;;
36383;SDS011;22418;51.210;6.976;2023-07-20T11:21:57;0.88;;;0.60;;
36383;SDS011;22418;51.210;6.976;2023-07-20T11:24:28;3.20;;;1.10;;
36383;SDS011;22418;51.210;6.976;2023-07-20T11:26:59;3.90;;;1.37;;
36383;SDS011;22418;51.210;6.976;2023-07-20T11:29:31;2.03;;;1.15;;
36383;SDS011;22418;51.210;6.976;2023-07-20T11:32:02;2.20;;;1.27;;
36383;SDS011;22418;51.210;6.976;2023-07-20T11:34:33;1.95;;;1.10;;
36383;SDS011;22418;51.210;6.976;2023-07-20T11:37:05;2.38;;;1.25;;
36383;SDS011;22418;51.210;6.976;2023-07-20T11:39:36;5.25;;;1.20;;
36383;SDS011;22418;51.210;6.976;2023-07-20T11:42:07;7.00;;;1.47;;
36383;SDS011;22418;51.210;6.976;2023-07-20T11:44:38;2.35;;;1.50;;
36383;SDS011;22418;51.210;6.976;2023-07-20T11:47:09;1.40;;;1.00;;
36383;SDS011;22418;51.210;6.976;2023-07-20T11:49:41;2.38;;;1.20;;
36383;SDS011;22418;51.210;6.976;2023-07-20T11:52:16;3.25;;;1.30;;
36383;SDS011;22418;51.210;6.976;2023-07-20T11:54:47;1.45;;;1.08;;
36383;SDS011;22418;51.210;6.976;2023-07-20T11:57:18;1.52;;;0.93;;
36383;SDS011;22418;51.210;6.976;2023-07-20T12:00:24;1.92;;;1.20;;
36383;SDS011;22418;51.210;6.976;2023-07-20T12:02:46;1.45;;;0.70;;
36383;SDS011;22418;51.210;6.976;2023-07-20T12:05:17;2.10;;;0.90;;
36383;SDS011;22418;51.210;6.976;2023-07-20T12:07:49;1.92;;;0.95;;
36383;SDS011;22418;51.210;6.976;2023-07-20T12:10:25;5.80;;;1.10;;
36383;SDS011;22418;51.210;6.976;2023-07-20T12:13:05;1.33;;;1.00;;
36383;SDS011;22418;51.210;6.976;2023-07-20T12:15:37;1.10;;;0.70;;
36383;SDS011;22418;51.210;6.976;2023-07-20T12:18:07;3.20;;;0.80;;
36383;SDS011;22418;51.210;6.976;2023-07-20T12:20:38;3.30;;;0.83;;
36383;SDS011;22418;51.210;6.976;2023-07-20T12:23:10;2.33;;;0.60;;
36383;SDS011;22418;51.210;6.976;2023-07-20T12:25:42;1.30;;;0.80;;
36383;SDS011;22418;51.210;6.976;2023-07-20T12:28:16;1.10;;;0.70;;
36383;SDS011;22418;51.210;6.976;2023-07-20T12:30:49;0.90;;;0.60;;
36383;SDS011;22418;51.210;6.976;2023-07-20T12:33:26;1.83;;;0.80;;
36383;SDS011;22418;51.210;6.976;2023-07-20T12:35:56;4.57;;;0.60;;
36383;SDS011;22418;51.210;6.976;2023-07-20T12:38:29;1.10;;;0.60;;
36383;SDS011;22418;51.210;6.976;2023-07-20T12:41:01;0.85;;;0.70;;
36383;SDS011;22418;51.210;6.976;2023-07-20T12:43:32;1.58;;;0.50;;
36383;SDS011;22418;51.210;6.976;2023-07-20T12:46:03;2.60;;;0.73;;
36383;SDS011;22418;51.210;6.976;2023-07-20T12:48:36;1.05;;;0.60;;
36383;SDS011;22418;51.210;6.976;2023-07-20T12:51:11;5.68;;;1.70;;
36383;SDS011;22418;51.210;6.976;2023-07-20T12:53:42;2.90;;;1.27;;
36383;SDS011;22418;51.210;6.976;2023-07-20T12:56:14;3.67;;;0.80;;
36383;SDS011;22418;51.210;6.976;2023-07-20T12:58:45;3.13;;;0.85;;
36383;SDS011;22418;51.210;6.976;2023-07-20T13:01:15;1.40;;;0.70;;
36383;SDS011;22418;51.210;6.976;2023-07-20T13:03:46;2.10;;;1.07;;
36383;SDS011;22418;51.210;6.976;2023-07-20T13:06:16;1.00;;;0.60;;
36383;SDS011;22418;51.210;6.976;2023-07-20T13:08:47;1.67;;;0.70;;
36383;SDS011;22418;51.210;6.976;2023-07-20T13:11:17;3.03;;;0.47;;
36383;SDS011;22418;51.210;6.976;2023-07-20T13:13:48;1.10;;;0.70;;
36383;SDS011;22418;51.210;6.976;2023-07-20T13:16:19;0.85;;;0.70;;
36383;SDS011;22418;51.210;6.976;2023-07-20T13:18:49;3.30;;;0.70;;
36383;SDS011;22418;51.210;6.976;2023-07-20T13:21:20;2.00;;;0.80;;
36383;SDS011;22418;51.210;6.976;2023-07-20T13:23:52;2.35;;;0.90;;
36383;SDS011;22418;51.210;6.976;2023-07-20T13:26:23;3.37;;;0.70;;
36383;SDS011;22418;51.210;6.976;2023-07-20T13:28:54;1.90;;;0.80;;
36383;SDS011;22418;51.210;6.976;2023-07-20T13:31:24;1.47;;;0.80;;
36383;SDS011;22418;51.210;6.976;2023-07-20T13:33:55;2.93;;;0.80;;
36383;SDS011;22418;51.210;6.976;2023-07-20T13:36:26;3.35;;;0.80;;
36383;SDS011;22418;51.210;6.976;2023-07-20T13:38:56;3.13;;;0.70;;
36383;SDS011;22418;51.210;6.976;2023-07-20T13:41:27;5.60;;;2.13;;
36383;SDS011;22418;51.210;6.976;2023-07-20T13:43:58;6.40;;;1.40;;
36383;SDS011;22418;51.210;6.976;2023-07-20T13:46:28;2.00;;;0.80;;
36383;SDS011;22418;51.210;6.976;2023-07-20T13:48:59;1.47;;;0.73;;
36383;SDS011;22418;51.210;6.976;2023-07-20T13:51:29;1.50;;;0.70;;
36383;SDS011;22418;51.210;6.976;2023-07-20T13:54:00;1.63;;;0.80;;
36383;SDS011;22418;51.210;6.976;2023-07-20T13:56:31;5.65;;;1.30;;
36383;SDS011;22418;51.210;6.976;2023-07-20T13:59:02;4.00;;;1.42;;
36383;SDS011;22418;51.210;6.976;2023-07-20T14:01:32;3.73;;;1.03;;
36383;SDS011;22418;51.210;6.976;2023-07-20T14:04:04;2.85;;;0.98;;
36383;SDS011;22418;51.210;6.976;2023-07-20T14:06:35;3.65;;;1.10;;
36383;SDS011;22418;51.210;6.976;2023-07-20T14:09:06;5.20;;;1.17;;
36383;SDS011;22418;51.210;6.976;2023-07-20T14:11:36;1.50;;;0.90;;
36383;SDS011;22418;51.210;6.976;2023-07-20T14:14:07;2.17;;;1.17;;
36383;SDS011;22418;51.210;6.976;2023-07-20T14:16:37;1.87;;;1.20;;
36383;SDS011;22418;51.210;6.976;2023-07-20T14:19:08;2.03;;;1.07;;
36383;SDS011;22418;51.210;6.976;2023-07-20T14:21:38;1.67;;;1.00;;
36383;SDS011;22418;51.210;6.976;2023-07-20T14:24:09;2.03;;;0.83;;
36383;SDS011;22418;51.210;6.976;2023-07-20T14:26:39;2.37;;;1.00;;
36383;SDS011;22418;51.210;6.976;2023-07-20T14:29:10;2.37;;;1.10;;
36383;SDS011;22418;51.210;6.976;2023-07-20T14:31:41;4.03;;;1.20;;
36383;SDS011;22418;51.210;6.976;2023-07-20T14:34:11;3.97;;;1.63;;
36383;SDS011;22418;51.210;6.976;2023-07-20T14:36:42;1.83;;;0.90;;
36383;SDS011;22418;51.210;6.976;2023-07-20T14:39:13;1.47;;;0.80;;
36383;SDS011;22418;51.210;6.976;2023-07-20T14:41:43;3.23;;;1.00;;
36383;SDS011;22418;51.210;6.976;2023-07-20T14:44:14;1.67;;;0.90;;
36383;SDS011;22418;51.210;6.976;2023-07-20T14:46:44;3.67;;;1.80;;
36383;SDS011;22418;51.210;6.976;2023-07-20T14:49:15;1.80;;;0.70;;
36383;SDS011;22418;51.210;6.976;2023-07-20T14:51:47;3.67;;;1.02;;
36383;SDS011;22418;51.210;6.976;2023-07-20T14:54:19;3.25;;;1.20;;
36383;SDS011;22418;51.210;6.976;2023-07-20T14:56:50;1.30;;;0.87;;
36383;SDS011;22418;51.210;6.976;2023-07-20T14:59:22;2.00;;;1.00;;
36383;SDS011;22418;51.210;6.976;2023-07-20T15:01:53;2.63;;;0.80;;
36383;SDS011;22418;51.210;6.976;2023-07-20T15:04:23;2.63;;;0.83;;
36383;SDS011;22418;51.210;6.976;2023-07-20T15:06:54;1.57;;;0.87;;
36383;SDS011;22418;51.210;6.976;2023-07-20T15:09:26;3.40;;;1.00;;
36383;SDS011;22418;51.210;6.976;2023-07-20T15:11:56;1.20;;;0.70;;
36383;SDS011;22418;51.210;6.976;2023-07-20T15:14:27;2.57;;;0.80;;
36383;SDS011;22418;51.210;6.976;2023-07-20T15:16:57;1.37;;;0.83;;
36383;SDS011;22418;51.210;6.976;2023-07-20T15:19:28;1.97;;;1.07;;
36383;SDS011;22418;51.210;6.976;2023-07-20T15:21:59;2.25;;;0.80;;
36383;SDS011;22418;51.210;6.976;2023-07-20T15:24:29;2.17;;;0.73;;
36383;SDS011;22418;51.210;6.976;2023-07-20T15:27:00;1.52;;;0.70;;
36383;SDS011;22418;51.210;6.976;2023-07-20T15:29:32;3.00;;;1.00;;
36383;SDS011;22418;51.210;6.976;2023-07-20T15:32:03;1.93;;;0.67;;
36383;SDS011;22418;51.210;6.976;2023-07-20T15:34:34;1.25;;;0.70;;
36383;SDS011;22418;51.210;6.976;2023-07-20T15:37:04;1.50;;;0.90;;
36383;SDS011;22418;51.210;6.976;2023-07-20T15:39:35;2.33;;;0.90;;
36383;SDS011;22418;51.210;6.976;2023-07-20T15:42:06;2.70;;;0.80;;
36383;SDS011;22418;51.210;6.976;2023-07-20T15:44:37;1.52;;;0.82;;
36383;SDS011;22418;51.210;6.976;2023-07-20T15:47:08;2.90;;;0.90;;
36383;SDS011;22418;51.210;6.976;2023-07-20T15:49:38;0.83;;;0.63;;
36383;SDS011;22418;51.210;6.976;2023-07-20T15:52:09;1.93;;;0.67;;
36383;SDS011;22418;51.210;6.976;2023-07-20T15:54:41;1.60;;;0.80;;